createdAt,value
2022-11-29T00:02:54.150Z,94.37
2022-11-29T00:06:56.196Z,94.44
2022-11-29T00:11:04.088Z,94.29
2022-11-29T00:15:06.383Z,94.24
2022-11-29T00:19:10.576Z,94.21
2022-11-29T00:23:12.619Z,94.09
2022-11-29T00:27:14.582Z,94.24
2022-11-29T00:31:18.895Z,94.34
2022-11-29T00:35:20.930Z,94.36
2022-11-29T00:39:22.920Z,94.33
2022-11-29T00:43:24.831Z,94.33
2022-11-29T00:47:26.734Z,94.33
2022-11-29T00:51:28.665Z,94.44
2022-11-29T00:55:31.117Z,94.58
2022-11-29T00:59:33.030Z,94.58
2022-11-29T01:03:34.940Z,94.65
2022-11-29T01:07:36.921Z,94.62
2022-11-29T01:11:38.869Z,94.50
2022-11-29T01:15:41.678Z,94.49
2022-11-29T01:19:49.338Z,94.57
2022-11-29T01:23:53.474Z,94.62
2022-11-29T01:27:55.351Z,94.65
2022-11-29T01:31:57.269Z,94.74
2022-11-29T01:35:59.211Z,94.84
2022-11-29T01:40:01.429Z,94.81
2022-11-29T01:44:03.353Z,94.73
2022-11-29T01:48:05.986Z,94.70
2022-11-29T01:52:14.219Z,94.75
2022-11-29T01:56:16.416Z,94.67
2022-11-29T02:00:19.531Z,94.81
2022-11-29T02:04:21.839Z,94.79
2022-11-29T02:08:36.589Z,94.74
2022-11-29T02:12:51.115Z,94.64
2022-11-29T02:17:03.254Z,94.69
2022-11-29T02:21:29.137Z,94.61
2022-11-29T02:25:46.404Z,94.70
2022-11-29T02:30:23.836Z,94.65
2022-11-29T02:34:47.505Z,94.68
2022-11-29T02:39:10.789Z,94.65
2022-11-29T02:43:34.306Z,94.64
2022-11-29T02:47:51.472Z,94.67
2022-11-29T02:52:02.567Z,94.73
2022-11-29T02:56:16.578Z,94.83
2022-11-29T03:00:21.420Z,94.77
2022-11-29T03:04:33.602Z,94.65
2022-11-29T03:09:13.790Z,94.52
2022-11-29T03:13:27.545Z,94.65
2022-11-29T03:17:51.043Z,94.78
2022-11-29T03:22:11.226Z,94.71
2022-11-29T03:26:34.033Z,94.68
2022-11-29T03:30:39.572Z,94.58
2022-11-29T03:35:02.507Z,94.65
2022-11-29T03:39:10.183Z,94.72
2022-11-29T03:43:21.882Z,94.83
2022-11-29T03:47:30.727Z,94.84
2022-11-29T03:51:47.309Z,94.81
2022-11-29T03:55:56.501Z,94.77
2022-11-29T04:00:05.371Z,94.92
2022-11-29T04:04:40.693Z,94.86
2022-11-29T04:08:49.394Z,94.94
2022-11-29T04:13:12.698Z,94.85
2022-11-29T04:17:31.961Z,94.93
2022-11-29T04:21:46.844Z,94.91
2022-11-29T04:26:19.444Z,94.99
2022-11-29T04:30:23.601Z,94.96
2022-11-29T04:34:28.620Z,94.88
2022-11-29T04:38:45.734Z,94.87
2022-11-29T04:43:10.472Z,94.86
2022-11-29T04:47:20.042Z,94.85
2022-11-29T04:51:50.716Z,94.80
2022-11-29T04:56:07.698Z,94.72
2022-11-29T05:00:15.418Z,94.84
2022-11-29T05:04:49.590Z,94.84
2022-11-29T05:09:02.655Z,94.90
2022-11-29T05:13:10.606Z,94.86
2022-11-29T05:17:50.080Z,94.84
2022-11-29T05:22:00.733Z,94.77
2022-11-29T05:26:32.384Z,94.72
2022-11-29T05:31:03.143Z,94.75
2022-11-29T05:35:11.452Z,94.77
2022-11-29T05:39:49.012Z,94.82
2022-11-29T05:43:59.483Z,94.77
2022-11-29T05:48:01.407Z,94.62
2022-11-29T05:52:24.899Z,94.61
2022-11-29T05:56:42.693Z,94.58
2022-11-29T06:00:48.432Z,94.59
2022-11-29T06:05:13.129Z,94.59
2022-11-29T06:09:19.039Z,94.58
2022-11-29T06:13:32.760Z,94.62
2022-11-29T06:18:02.091Z,94.59
2022-11-29T06:22:06.949Z,94.54
2022-11-29T06:26:17.872Z,94.56
2022-11-29T06:30:29.485Z,94.51
2022-11-29T06:34:46.127Z,94.40
2022-11-29T06:38:48.455Z,94.35
2022-11-29T06:42:50.615Z,94.39
2022-11-29T06:47:06.736Z,94.18
2022-11-29T06:51:27.003Z,94.29
2022-11-29T06:55:49.341Z,94.36
2022-11-29T07:00:03.960Z,94.49
2022-11-29T07:04:16.304Z,94.53
2022-11-29T07:08:21.100Z,94.38
2022-11-29T07:12:23.440Z,94.27
2022-11-29T07:16:57.582Z,94.17
2022-11-29T07:21:02.607Z,94.14
2022-11-29T07:25:29.674Z,94.12
2022-11-29T07:29:40.606Z,94.24
2022-11-29T07:34:00.771Z,94.29
2022-11-29T07:38:44.342Z,94.29
2022-11-29T07:43:07.673Z,94.13
2022-11-29T07:47:09.667Z,94.01
2022-11-29T07:51:12.155Z,93.96
2022-11-29T07:55:19.018Z,94.05
2022-11-29T07:59:21.381Z,94.09
2022-11-29T08:03:23.347Z,94.02
2022-11-29T08:07:25.447Z,93.94
2022-11-29T08:11:27.729Z,93.86
2022-11-29T08:15:29.745Z,93.85
2022-11-29T08:19:31.696Z,93.77
2022-11-29T08:23:33.688Z,93.78
2022-11-29T08:27:38.307Z,93.56
2022-11-29T08:31:40.458Z,93.51
2022-11-29T08:35:42.471Z,93.50
2022-11-29T08:39:44.390Z,93.44
2022-11-29T08:43:46.443Z,93.46
2022-11-29T08:47:48.337Z,93.33
2022-11-29T08:52:13.498Z,93.28
2022-11-29T09:00:44.985Z,93.20
2022-11-29T09:04:47.119Z,93.38
2022-11-29T09:08:49.232Z,93.29
2022-11-29T09:12:51.188Z,93.14
2022-11-29T09:16:53.170Z,93.12
2022-11-29T09:20:55.141Z,92.84
2022-11-29T09:24:57.099Z,92.65
2022-11-29T09:29:00.790Z,92.68
2022-11-29T09:33:04.327Z,92.61
2022-11-29T09:37:06.397Z,92.58
2022-11-29T09:41:47.068Z,92.57
2022-11-29T09:45:59.252Z,92.56
2022-11-29T09:50:29.833Z,92.52
2022-11-29T09:55:24.334Z,92.60
2022-11-29T09:59:31.951Z,92.59
2022-11-29T10:03:40.665Z,92.45
2022-11-29T10:07:50.987Z,92.26
2022-11-29T10:12:05.046Z,92.27
2022-11-29T10:16:36.044Z,92.46
2022-11-29T10:20:43.512Z,92.40
2022-11-29T10:24:51.943Z,92.41
2022-11-29T10:28:57.056Z,92.31
2022-11-29T10:33:00.387Z,92.19
